Tiempo atmosférico en la estación meteorológica de Punta Galea, Bizkaia (90 m.)



Fecha
DESCASC
Temp. máxima en grados centígrados (hora)
DESCASC
Temp. mínima en grados centígrados (hora)
DESCASC
Temp. media en grados centígrados
DESCASC
Racha de viento máxima en m/sg (hora)
DESCASC
Velocidad máxima media en intervalos de 10 minutos(hora)
DESCASC
Precipitaciones diarias en mm
DESCASC
Precipitaciones de 00:00 a 06:00 en mm
DESCASC
Precipitaciones de 06:00 a 12:00 en mm
DESCASC
Precipitaciones de 12:00 a 18:00 en mm
DESCASC
Precipitaciones de 18:00 a 24:00 en mm
DESCASC
13-10-2019 27.2 (16:00) 16 (23:59) 21.6 13.33 (12:10) 7.5 (17:10) 0 0 0 0 0
12-10-2019 28.1 (17:30) 16.3 (06:00) 22.2 11.94 (21:00) 5.28 (21:00) 0 0 0 0 0
11-10-2019 27 (15:10) 12 (03:50) 19.5 8.33 (09:50) 4.72 (10:00) 0 0 0 0 0
10-10-2019 19.9 (13:20) 10.9 (00:00) 15.4 8.06 (10:00) 3.89 (15:40) 0 0 0 0 0
09-10-2019 19.2 (15:30) 14.1 (00:00) 16.7 12.78 (18:10) 5.83 (14:00) 0.3 0 0.3 0 0
08-10-2019 23.8 (14:50) 12.2 (00:00) 18 10.28 (19:00) 5.83 (17:50) 0.9 0 0 0 0.9
07-10-2019 22 (17:00) 12 (00:00) 17 5 (10:40) 3.33 (10:40) 0 0 0 0 0
06-10-2019 18.1 (14:50) 14.4 (00:00) 16.3 6.94 (17:50) 3.89 (16:40) 1.3 0 0 1.2 0.1
05-10-2019 20 (14:50) 13.3 (00:00) 16.7 4.72 (15:30) 2.78 (16:00) 0.1 0 0.1 0 0
04-10-2019 17.2 (14:50) 15.1 (00:00) 16.2 6.11 (12:30) 3.33 (12:50) 2.9 0 2.5 0.3 0.1
03-10-2019 20.1 (17:20) 12.4 (00:00) 16.3 5.83 (02:10) 2.78 (10:30) 0 0 0 0 0
02-10-2019 17.9 (00:40) 14.4 (00:00) 16.1 16.39 (06:40) 9.17 (06:50) 12.6 2.7 7.7 1.9 0.3
01-10-2019 21.7 (14:00) 16.9 (00:00) 19.3 10.83 (19:10) 6.39 (21:50) 0.3 0 0 0 0.3
30-09-2019 25 (17:00) 16.1 (00:00) 20.6 4.72 (23:20) 2.78 (23:30) 0 0 0 0 0
29-09-2019 24.5 (15:40) 13.3 (00:00) 18.9 4.72 (13:00) 3.33 (02:20) 0 0 0 0 0
28-09-2019 21.2 (16:50) 15.4 (00:00) 18.3 6.11 (14:40) 4.17 (14:20) 0 0 0 0 0
27-09-2019 21.2 (15:40) 14.8 (00:00) 18 8.89 (20:00) 5 (20:00) 0 0 0 0 0
26-09-2019 21.6 (15:20) 15.1 (00:00) 18.4 5.28 (16:40) 2.78 (16:10) 0 0 0 0 0
25-09-2019 20.5 (12:40) 17 (00:00) 18.8 9.17 (14:00) 4.72 (14:50) 0 0 0 0 0
24-09-2019 24 (04:30) 17 (00:00) 20.5 13.89 (04:00) 6.39 (14:20) 0.2 0 0.2 0 0
23-09-2019 23.8 (16:20) 13.7 (00:00) 18.7 6.39 (15:00) 2.5 (13:10) 0.2 0 0 0 0.2
22-09-2019 24.4 (01:10) 15.4 (00:00) 19.9 13.33 (02:00) 7.22 (01:50) 11 10.7 0.3 0 0
21-09-2019 27.9 (14:10) 17.8 (00:00) 22.8 11.11 (19:10) 5.83 (00:10) 0.4 0.3 0.1 0 0
20-09-2019 30.6 (15:40) 14.8 (00:00) 22.7 10.28 (23:10) 5.56 (23:59) 2.3 0 0 0 2.3
19-09-2019 21.6 (14:40) 15.6 (00:00) 18.6 5.56 (00:40) 3.33 (14:50) 0 0 0 0 0
18-09-2019 21.2 (16:20) 18.5 (00:00) 19.9 6.39 (13:30) 3.33 (13:50) 4.1 0 4.1 0 0
17-09-2019 22.6 (15:50) 17.3 (00:00) 19.9 5.83 (23:10) 3.33 (22:30) 0 0 0 0 0

Gráficas

Temp. máximas Temp. mínimas Temp. medias Precipitaciones Rachas de viento máximas Velocidades máximas media en intervalos de 10 minutos

Datos horarios

Fecha y hora oficial Temperatura (ºC) Velocidad del viento (km/h) Dirección del viento Racha (km/h) Dirección de racha Precipitación (mm) Presión (hPa) Tendencia (hPa) Humedad (%)
2019-10-16 23:00:00 19.1 13 Sur 45 Sudoeste 0 1003.4 0.5 62
2019-10-16 22:00:00 19.4 14 Sudoeste 44 Sudoeste 0 1003.1 1.2 61
2019-10-16 21:00:00 19.4 11 Sudoeste 34 Sudoeste 0 1002.9 0.9 61
2019-10-16 20:00:00 20 9 Sur 23 Sur 0 1002.9 0.8 54
2019-10-16 19:00:00 20 13 Sur 33 Sur 0 1001.9 -0.4 53
2019-10-16 18:00:00 21 14 Sur 36 Sur 0 1002 -0.7 53
2019-10-16 17:00:00 20.6 13 Sudoeste 27 Sudoeste 0 1002.1 -0.9 52
2019-10-16 16:00:00 21.4 10 Sudoeste 34 Sur 0 1002.3 -1.2 51
2019-10-16 15:00:00 21.7 13 Sur 39 Sur 0 1002.7 -1.2 53
2019-10-16 14:00:00 19.5 16 Sudoeste 36 Sudoeste 0 1003 -1.1 56
2019-10-16 13:00:00 18.3 12 Sur 41 Sur 0 1003.5 -0.4 63
2019-10-16 12:00:00 18.1 13 Sudoeste 42 Sudoeste 0 1003.9 0.8 63
2019-10-16 11:00:00 18 17 Sudoeste 40 Sudoeste 0 1004.1 1.4 59
2019-10-16 10:00:00 17.8 13 Sur 36 Sudoeste 0 1003.9 0.9 59
2019-10-16 09:00:00 17.3 11 Sur 38 Sur 0 1003.1 -0.1 56
2019-10-16 08:00:00 17.5 14 Sur 42 Sudoeste 0 1002.7 -1.1 53
2019-10-16 07:00:00 17.1 13 Sur 37 Sur 0 1003 -1.3 58
2019-10-16 06:00:00 16.9 13 Sur 31 Sur 0 1003.2 -1.3 59
2019-10-16 05:00:00 17 12 Sur 29 Sur 0 1003.8 -1.5 59
2019-10-16 04:00:00 17.4 13 Sur 32 Sudoeste 0 1004.3 -1.5 57
2019-10-16 03:00:00 17.2 10 Sur 24 Sur 0 1004.5 -1.6 56
2019-10-16 02:00:00 17.4 11 Sur 37 Sudoeste 0 1005.3 -1 55
2019-10-16 01:00:00 17.2 10 Sudoeste 32 Sudoeste 0 1005.8 -0.6 54
2019-10-16 00:00:00 17.2 9 Sudoeste 31 Sudoeste 0 1006.1 -0.5 53
2019-10-15 23:00:00 17.2 10 Sur 34 Sudoeste 0 1006.3 -0.5 54
2019-10-15 22:00:00 17.4 11 Sudoeste 30 Sudoeste 0 1006.4 -0.1 51
2019-10-15 21:00:00 17.2 12 Sur 28 Sudoeste 0 1006.6 0.2 51
2019-10-15 20:00:00 17.2 7 Sur 20 Sur 0 1006.8 -0.1 51
2019-10-15 19:00:00 18.3 9 Sur 20 Sudoeste 0 1006.5 -0.8 46
2019-10-15 18:00:00 20.1 6 Sur 17 Sur 0 1006.4 -1.2 46
2019-10-15 17:00:00 18.8 3 Norte 6 Norte 0 1006.9 -0.8 48
2019-10-15 16:00:00 18.9 4 Nordeste 9 Norte 0 1007.3 -0.6 48
2019-10-15 15:00:00 18.9 5 Noroeste 12 Noroeste 0 1007.6 -0.7 48
2019-10-15 14:00:00 17.9 6 Oeste 13 Noroeste 0 1007.7 -0.5 47
2019-10-15 13:00:00 18 6 Oeste 14 Sur 0 1007.9 0.4 48
2019-10-15 12:00:00 16.5 6 Sudoeste 17 Sudoeste 0 1008.3 1.4 53
2019-10-15 11:00:00 15 7 Sudoeste 20 Sudoeste 0 1008.2 2 58
2019-10-15 10:00:00 14.4 8 Sudoeste 18 Sudoeste 0 1007.5 1.6 60
2019-10-15 09:00:00 13.8 6 Sudoeste 25 Sudoeste 0 1006.9 1.3 61
2019-10-15 08:00:00 14.2 8 Oeste 28 Oeste 0 1006.2 1.3 61
2019-10-15 07:00:00 13.8 9 Oeste 28 Oeste 0 1005.9 1 61
2019-10-15 06:00:00 13.8 11 Oeste 34 Oeste 0 1005.6 0.8 61
2019-10-15 05:00:00 14.1 17 Oeste 33 Oeste 0 1004.9 0.1 61
2019-10-15 04:00:00 13.6 13 Oeste 41 Oeste 0 1004.9 1 67
2019-10-15 03:00:00 13.5 16 Oeste 39 Oeste 0 1004.8 1.2 73
2019-10-15 02:00:00 13.6 15 Oeste 40 Oeste 0 1004.8 1.6 70
2019-10-15 01:00:00 13.7 15 Oeste 33 Oeste 0 1003.9 1.8 72
2019-10-15 00:00:00 13.7 15 Oeste 34 Oeste 0 1003.6 2 78
2019-10-14 23:00:00 13.3 14 Oeste 33 Noroeste 0.3 1003.2 2.3 89
2019-10-14 22:00:00 12.6 14 Oeste 35 Oeste 2 1002.1 2.4 95
2019-10-14 21:00:00 13 17 Oeste 54 Noroeste 1.8 1001.6 2.9 93
2019-10-14 20:00:00 13.7 30 Noroeste 57 Noroeste 0.5 1000.9 2.8 92
2019-10-14 19:00:00 16.5 7 Nordeste 15 Oeste 0.2 999.7 1.4 92
2019-10-14 18:00:00 16.8 0 Calma 11 Nordeste 0 998.7 0.8 88
2019-10-14 17:00:00 16.9 6 Nordeste 15 Norte 0 998.1 0.4 87
2019-10-14 16:00:00 18.1 6 Norte 17 Noroeste 0 998.3 0.1 86
2019-10-14 15:00:00 17.9 8 Noroeste 18 Norte 0 997.9 -0.5 89
2019-10-14 14:00:00 17 8 Norte 19 Noroeste 0 997.7 0.1 95
2019-10-14 13:00:00 15.7 8 Noroeste 15 Noroeste 2.2 998.2 0.9 96
2019-10-14 12:00:00 15.6 3 Oeste 31 Oeste 5.5 998.4 1.1 95
2019-10-14 11:00:00 16.2 16 Noroeste 27 Noroeste 0 997.6 0.8 90
2019-10-14 10:00:00 16.1 10 Noroeste 26 Noroeste 0 997.3 1.1 92
2019-10-14 09:00:00 16 15 Noroeste 43 Noroeste 0 997.3 2.2 93
2019-10-14 08:00:00 16.3 23 Noroeste 44 Noroeste 0 996.8 1.4 95
2019-10-14 07:00:00 18.2 17 Noroeste 34 Noroeste 0 996.2 0.2 89
2019-10-14 06:00:00 20.1 10 Sur 21 Sur 0 995.1 -1.9 76
2019-10-14 05:00:00 19.1 9 Sur 19 Sur 0 995.4 -2.3 76
2019-10-14 04:00:00 16.7 8 Sur 15 Sudoeste 0 996 -2.6 79
2019-10-14 03:00:00 16.8 8 Sur 13 Sudeste 0 997 -2.1 78
2019-10-14 02:00:00 16.8 8 Sur 14 Sur 0 997.7 -2.3 83
2019-10-14 01:00:00 16 10 Sur 18 Sur 0 998.6 -1.8 95
2019-10-14 00:00:00 16.1 11 Sur 18 Sur 0 999.1 -1.4 96
2019-10-13 23:00:00 16.6 5 Sudeste 10 Sur 0 1000 -0.7 95
2019-10-13 22:00:00 17.3 5 Sur 6 Sur 0 1000.4 -0.7 94
2019-10-13 21:00:00 17.7 3 Sudoeste 6 Sudoeste 0 1000.5 -0.6 94
2019-10-13 20:00:00 18.6 3 Oeste 12 Noroeste 0 1000.7 -0.1 94
2019-10-13 19:00:00 19.3 8 Noroeste 21 Noroeste 0 1001.1 0.5 92
2019-10-13 18:00:00 20.3 9 Noroeste 40 Noroeste 0 1001.1 0.3 91
2019-10-13 17:00:00 21.4 23 Noroeste 40 Noroeste 0 1000.8 -0.2 70
2019-10-13 16:00:00 27 10 Oeste 23 Sudoeste 0 1000.6 -0.3 41
2019-10-13 15:00:00 26.2 11 Oeste 22 Oeste 0 1000.8 0 45
2019-10-13 14:00:00 26.5 12 Sudoeste 36 Sudoeste 0 1001 0.5 45
2019-10-13 13:00:00 25.6 10 Sur 48 Sudoeste 0 1000.9 1.2 50
2019-10-13 12:00:00 24.7 17 Sur 40 Sur 0 1000.8 2 51
2019-10-13 11:00:00 23.8 13 Sur 42 Sudoeste 0 1000.5 2.6 52
2019-10-13 10:00:00 22.5 9 Sur 23 Sudeste 0 999.7 2.1 60
2019-10-13 09:00:00 21.3 8 Sur 23 Sur 0 998.8 1.6 61
2019-10-13 08:00:00 21.7 10 Sur 20 Sur 0 997.9 0.3 55
2019-10-13 07:00:00 21.3 8 Sur 21 Sudeste 0 997.6 -0.3 56
2019-10-13 06:00:00 21.9 9 Sur 20 Sudeste 0 997.2 -1 55
2019-10-13 05:00:00 22.2 8 Sudeste 22 Sudeste 0 997.6 -1 56
2019-10-13 04:00:00 22 7 Sudeste 22 Sur 0 997.9 -1 60
2019-10-13 03:00:00 22.4 11 Sudeste 27 Sur 0 998.2 -1.3 62
2019-10-13 02:00:00 22.6 12 Sudeste 23 Sudeste 0 998.6 -1.2 62
2019-10-13 01:00:00 22.5 10 Sudeste 21 Sur 0 998.9 -0.6 63
2019-10-13 00:00:00 21.8 9 Sur 19 Sur 0 999.5 -0.1 63
2019-10-12 23:00:00 22.1 9 Sur 27 Sur 0 999.8 -- 60
2019-10-12 22:00:00 23.5 12 Sur 38 Sur 0 999.5 0.8 50
2019-10-12 21:00:00 25.2 19 Sur 43 Sudeste 0 999.6 0.8 51
2019-10-12 20:00:00 -- 11 Sur 28 Sudeste 0 -- -- --
2019-10-12 19:00:00 26.2 9 Sur 29 Sudeste 0 998.7 -1 51
2019-10-12 18:00:00 27.7 12 Sudeste 30 Sudeste 0 998.8 -1.8 50
2019-10-12 17:00:00 27.6 10 Sudeste 22 Sudeste 0 999.1 -2.7 53
2019-10-12 16:00:00 26 11 Sudeste 25 Sur 0 999.7 -2.3 55
2019-10-12 15:00:00 24.9 9 Sur 26 Sur 0 1000.6 -2.2 55
2019-10-12 14:00:00 24 3 Sudeste 24 Sudeste 0 1001.8 -0.8 64
2019-10-12 13:00:00 23.9 12 Sur 28 Sur 0 1002 0.2 59
2019-10-12 12:00:00 22.7 5 Sudeste 18 Sur 0 1002.8 0.9 68
2019-10-12 11:00:00 22.3 7 Sudeste 30 Sur 0 1002.6 0.4 69
2019-10-12 10:00:00 21.8 14 Sur 25 Sur 0 1001.8 -0.5 72
2019-10-12 09:00:00 19.6 8 Sur 17 Sur 0 1001.9 -0.6 86
2019-10-12 08:00:00 16.9 0 Calma 2 Sudoeste 0 1002.2 -0.5 95
2019-10-12 07:00:00 16.6 0 Calma 0 Calma 0 1002.3 -0.8 95
2019-10-12 06:00:00 16.4 0 Calma 0 Calma 0 1002.5 -1.4 95
2019-10-12 05:00:00 16.7 0 Calma 0 Calma 0 1002.7 -1.3 96
2019-10-12 04:00:00 16.5 0 Calma 4 Sudeste 0 1003.1 -1.7 95
2019-10-12 03:00:00 16.6 2 Sudeste 6 Sudeste 0 1003.9 -1.6 95
2019-10-12 02:00:00 17 0 Calma 13 Noroeste 0 1004 -1.2 95
2019-10-12 01:00:00 17.4 8 Noroeste 22 Noroeste 0 1004.8 0.3 95
2019-10-12 00:00:00 17.5 12 Noroeste 22 Noroeste 0 1005.5 1 95
2019-10-11 23:00:00 17.5 10 Noroeste 20 Noroeste 0 1005.2 1 95
2019-10-11 22:00:00 17.7 7 Noroeste 12 Oeste 0 1004.5 0.5 95
2019-10-11 21:00:00 18 6 Noroeste 14 Noroeste 0 1004.5 0.4 95
2019-10-11 20:00:00 18.4 8 Noroeste 18 Noroeste 0 1004.2 -0.3 95
2019-10-11 19:00:00 19 11 Noroeste 17 Noroeste 0 1004 -0.9 91
2019-10-11 18:00:00 19.7 10 Noroeste 17 Noroeste 0 1004.1 -1.3 89
2019-10-11 17:00:00 20.3 9 Oeste 17 Noroeste 0 1004.5 -2 88
2019-10-11 16:00:00 20.2 10 Noroeste 17 Oeste 0 1004.9 -2.2 87
2019-10-11 15:00:00 26.6 9 Sudeste 23 Sur 0 1005.4 -2 42
2019-10-11 14:00:00 26.2 13 Sur 25 Sur 0 1006.5 -1.2 42
2019-10-11 13:00:00 24.8 12 Sur 27 Sur 0 1007.1 -0.3 44
2019-10-11 12:00:00 23.5 14 Sur 26 Sur 0 1007.4 0.5 48
2019-10-11 11:00:00 21.4 15 Sur 27 Sur 0 1007.7 1.1 51
2019-10-11 10:00:00 19.3 17 Sudeste 30 Sudeste 0 1007.4 1.1 57
2019-10-11 09:00:00 16.6 6 Sur 19 Sur 0 1006.9 0.3 69
2019-10-11 08:00:00 15.4 10 Sur 21 Sur 0 1006.6 -0.2 73
2019-10-11 07:00:00 15.2 11 Sur 22 Sur 0 1006.3 -1.3 76
2019-10-11 06:00:00 13.6 9 Sur 17 Sudeste 0 1006.6 -2 86
2019-10-11 05:00:00 13.4 11 Sudeste 17 Sur 0 1006.8 -2.2 91
2019-10-11 04:00:00 12.2 9 Sur 15 Sur 0 1007.6 -2 95
2019-10-11 03:00:00 12.4 7 Sur 18 Sur 0 1008.6 -1.6 95
2019-10-11 02:00:00 12.8 10 Sur 17 Sur 0 1009 -1.5 95
2019-10-11 01:00:00 13.1 6 Sur 17 Sudeste 0 1009.6 -1.3 94
2019-10-11 00:00:00 13.4 6 Sudeste 12 Sur 0 1010.2 -0.8 93
2019-10-10 23:00:00 14 6 Sur 14 Sudeste 0 1010.5 -0.5 91
2019-10-10 22:00:00 14.6 6 Sur 12 Sudeste 0 1010.9 -0.3 90
2019-10-10 21:00:00 15 2 Sudeste 14 Este 0 1011 -0.3 89
2019-10-10 20:00:00 15.7 5 Sudeste 12 Este 0 1011 -0.8 88
2019-10-10 19:00:00 17.5 7 Este 16 Este 0 1011.2 -1.3 82
2019-10-10 18:00:00 18.6 11 Nordeste 19 Nordeste 0 1011.3 -1.6 78
2019-10-10 17:00:00 18.8 12 Nordeste 22 Nordeste 0 1011.8 -1.7 77
2019-10-10 16:00:00 19.2 13 Nordeste 22 Nordeste 0 1012.5 -1.5 74
2019-10-10 15:00:00 19.3 13 Nordeste 19 Nordeste 0 1012.9 -1.4 70
2019-10-10 14:00:00 19.5 9 Nordeste 14 Nordeste 0 1013.5 -1 68
2019-10-10 13:00:00 18.4 5 Sudeste 13 Sudeste 0 1014 -0.1 72
2019-10-10 12:00:00 15.6 8 Sudeste 17 Sudeste 0 1014.3 0.6 86
2019-10-10 11:00:00 13.9 10 Sudeste 16 Sudeste 0 1014.5 1.1 90
2019-10-10 10:00:00 12.3 9 Sur 29 Sur 0 1014.1 0.9 92
2019-10-10 09:00:00 11.4 9 Sur 15 Sur 0 1013.7 0.3 94
2019-10-10 08:00:00 11 10 Sur 14 Sur 0 1013.4 0.2 94
2019-10-10 07:00:00 11.2 9 Sur 14 Sur 0 1013.2 -0.1 94
2019-10-10 06:00:00 11.4 9 Sur 14 Sudeste 0 1013.4 -0.2 94
2019-10-10 05:00:00 11.5 9 Sur 14 Sur 0 1013.2 -0.3 94
2019-10-10 04:00:00 11.9 9 Sur 13 Sudeste 0 1013.3 -0.6 94
2019-10-10 03:00:00 12.3 8 Sudeste 12 Sudeste 0 1013.6 -0.2 93
2019-10-10 02:00:00 12.8 8 Sur 12 Sur 0 1013.5 -0.2 93
2019-10-10 01:00:00 13.3 7 Sur 11 Sur 0 1013.9 0.3 92
2019-10-10 00:00:00 14.3 4 Sur 11 Sudoeste 0 1013.8 0.1 89
2019-10-09 23:00:00 15.6 3 Sudoeste 12 Oeste 0 1013.7 0.5 85
2019-10-09 22:00:00 15.7 5 Sudoeste 12 Sudoeste 0 1013.6 0.6 85
2019-10-09 21:00:00 16.3 4 Oeste 16 Oeste 0 1013.7 0.9 80
2019-10-09 20:00:00 16.7 10 Noroeste 28 Noroeste 0 1013.2 0.6 80
2019-10-09 19:00:00 17.4 14 Noroeste 46 Noroeste 0 1013 0.3 79
2019-10-09 18:00:00 17.7 16 Noroeste 31 Noroeste 0 1012.8 0.1 76
2019-10-09 17:00:00 18 15 Noroeste 31 Noroeste 0 1012.6 -0.1 70
2019-10-09 16:00:00 18.2 13 Noroeste 27 Noroeste 0 1012.7 -0.3 72
2019-10-09 15:00:00 18.7 15 Noroeste 28 Noroeste 0 1012.7 -0.4 69
2019-10-09 14:00:00 17.8 21 Noroeste 33 Noroeste 0 1012.7 -0.2 78
2019-10-09 13:00:00 17.4 10 Noroeste 23 Noroeste 0 1013 0.7 87
2019-10-09 12:00:00 14.8 12 Oeste 35 Oeste 0.3 1013.1 1.5 95
2019-10-09 11:00:00 14.9 11 Noroeste 28 Noroeste 0 1012.9 1.6 93
2019-10-09 10:00:00 16.1 13 Oeste 34 Oeste 0 1012.3 1.2 84
2019-10-09 09:00:00 15.4 4 Oeste 14 Oeste 0 1011.6 1 90
2019-10-09 08:00:00 14.9 7 Oeste 17 Oeste 0 1011.3 0.9 92
2019-10-09 07:00:00 14.9 9 Oeste 27 Oeste 0 1011.1 0.6 93
2019-10-09 06:00:00 15.2 6 Oeste 17 Oeste 0 1010.6 0.6 92
2019-10-09 05:00:00 15 6 Oeste 14 Noroeste 0 1010.4 -0.2 94
2019-10-09 04:00:00 14.3 12 Noroeste 24 Noroeste 0 1010.5 -0.2 95
2019-10-09 03:00:00 14.6 6 Oeste 18 Sudoeste 0 1010 -0.8 95
2019-10-09 02:00:00 15 10 Oeste 19 Oeste 0 1010.6 -0.5 94
2019-10-09 01:00:00 15.3 7 Noroeste 25 Oeste 0 1010.7 -0.3 96
2019-10-09 00:00:00 15.3 6 Oeste 23 Noroeste 0.1 1010.8 -0.3 97
2019-10-08 23:00:00 15.1 15 Noroeste 26 Noroeste 0.3 1011.1 0.7 97
2019-10-08 22:00:00 15.7 13 Noroeste 21 Noroeste 0 1011 1.3 97
2019-10-08 21:00:00 15.5 12 Noroeste 31 Noroeste 0.5 1011.1 2.3 97
2019-10-08 20:00:00 15.9 18 Noroeste 34 Norte 0 1010.4 2.5 97
2019-10-08 19:00:00 17.5 14 Noroeste 37 Norte 0 1009.7 2.1 96
2019-10-08 18:00:00 18.9 21 Noroeste 37 Noroeste 0 1008.8 1.3 96
2019-10-08 17:00:00 21.7 10 Noroeste 21 Norte 0 1007.9 0.3 77
2019-10-08 16:00:00 23 4 Norte 9 Norte 0 1007.6 -0.3 69
2019-10-08 15:00:00 23.3 5 Norte 10 Norte 0 1007.5 -0.7 68
2019-10-08 14:00:00 22.2 6 Noroeste 11 Norte 0 1007.6 -0.8 70
2019-10-08 13:00:00 21.4 7 Noroeste 12 Oeste 0 1007.9 -0.1 73
2019-10-08 12:00:00 20.8 4 Sudeste 17 Sudeste 0 1008.2 0.4 57
2019-10-08 11:00:00 17.8 9 Sur 19 Sudeste 0 1008.4 0.2 59
2019-10-08 10:00:00 15.6 11 Sur 18 Sur 0 1008 -0.1 67
2019-10-08 09:00:00 13.2 11 Sur 18 Sur 0 1007.8 -0.4 77
2019-10-08 08:00:00 12.4 12 Sur 18 Sur 0 1008.2 -0.5 80
2019-10-08 07:00:00 12.4 12 Sur 18 Sur 0 1008.1 -1.1 82
2019-10-08 06:00:00 12.7 12 Sur 17 Sur 0 1008.2 -1.9 84
2019-10-08 05:00:00 12.5 10 Sur 16 Sur 0 1008.7 -1.4 86
2019-10-08 04:00:00 12.9 10 Sur 17 Sur 0 1009.2 -1 87
2019-10-08 03:00:00 13.4 10 Sur 15 Sur 0 1010.1 -0.5 86
2019-10-08 02:00:00 13.8 10 Sur 14 Sur 0 1010.1 -0.6 89
2019-10-08 01:00:00 14.5 9 Sur 15 Sur 0 1010.2 -0.5 87
2019-10-08 00:00:00 15 8 Sur 14 Sur 0 1010.6 0.2 87
2019-10-07 23:00:00 15.2 6 Sur 9 Sudeste 0 1010.7 0.3 84
2019-10-07 22:00:00 15.7 6 Sur 8 Sur 0 1010.7 0.1 78
2019-10-07 21:00:00 16.3 0 Calma -- -- 0 1010.4 -0.4 70
2019-10-07 20:00:00 18 0 Calma 0 Calma 0 1010.4 -0.3 60
2019-10-07 19:00:00 21.3 0 Calma 5 Norte 0 1010.6 -0.4 52
2019-10-07 18:00:00 21.3 4 Norte 9 Nordeste 0 1010.8 -0.3 60
2019-10-07 17:00:00 21.6 5 Norte 17 Nordeste 0 1010.7 -0.9 60
2019-10-07 16:00:00 21 9 Nordeste 16 Nordeste 0 1011 -1.4 71
2019-10-07 15:00:00 20.7 9 Nordeste 15 Nordeste 0 1011.1 -1.2 71
2019-10-07 14:00:00 19.4 6 Norte 10 Norte 0 1011.6 -0.7 73
2019-10-07 13:00:00 18.9 5 Norte 12 Sudeste 0 1012.4 0.3 76
2019-10-07 12:00:00 18 7 Sur 17 Sudeste 0 1012.3 0.7 78
2019-10-07 11:00:00 15.9 9 Sudeste 18 Sur 0 1012.3 0.8 89
2019-10-07 10:00:00 13.5 9 Sur 17 Sudeste 0 1012.1 0.6 96
2019-10-07 09:00:00 12.6 9 Sur 16 Sudeste 0 1011.6 0.5 97
2019-10-07 08:00:00 12.2 9 Sur 15 Sur 0 1011.5 0.1 97
2019-10-07 07:00:00 12.1 9 Sur 15 Sur 0 1011.5 -0.6 97
2019-10-07 06:00:00 12.2 8 Sur 14 Sur 0 1011.1 -1.9 97
2019-10-07 05:00:00 12.7 7 Sur 13 Sur 0 1011.4 -1.6 97
2019-10-07 04:00:00 13 8 Sur 12 Sudeste 0 1012.1 -1.6 96
2019-10-07 03:00:00 13.4 7 Sur 12 Sur 0 1013 -- 96
2019-10-07 02:00:00 13.8 8 Sur 11 Sur 0 1013 -1 96
2019-10-07 01:00:00 14.1 6 Sur 10 Sur 0 1013.7 -0.1 95
2019-10-07 00:00:00 -- 2 Sudoeste 8 Oeste 0 -- -- --
2019-10-06 23:00:00 16.3 3 Noroeste 14 Noroeste 0.1 1014 0.7 89
2019-10-06 22:00:00 16.6 9 Noroeste 17 Noroeste 0 1013.8 0.5 82
2019-10-06 21:00:00 16.8 9 Noroeste 19 Noroeste 0 1013.8 1 83
2019-10-06 20:00:00 16.9 10 Noroeste 21 Noroeste 0 1013.3 0.5 86
2019-10-06 19:00:00 17.2 11 Noroeste 22 Noroeste 0 1013.3 0.6 87
2019-10-06 18:00:00 17.2 12 Noroeste 25 Noroeste 0 1012.8 0.4 86
2019-10-06 17:00:00 16.7 12 Noroeste 24 Noroeste 0.6 1012.8 0 96
2019-10-06 16:00:00 17.5 11 Noroeste 19 Noroeste 0 1012.7 0.2 91
2019-10-06 15:00:00 17.9 9 Oeste 24 Noroeste 0 1012.4 0.1 91
2019-10-06 14:00:00 17.5 10 Noroeste 18 Oeste 0 1012.8 0.8 93
2019-10-06 13:00:00 16.4 10 Oeste 20 Noroeste 0.6 1012.5 0.8 95
2019-10-06 12:00:00 17.6 9 Oeste 18 Oeste 0 1012.3 1.1 90
2019-10-06 11:00:00 17.6 5 Sudoeste 19 Oeste 0 1012 1.5 88
2019-10-06 10:00:00 16.3 2 Sudoeste 9 Sur 0 1011.7 0.9 94
2019-10-06 09:00:00 15.3 4 Sur 10 Sur 0 1011.2 0.8 94
2019-10-06 08:00:00 14.8 7 Sudeste 11 Sudeste 0 1010.5 0.5 94
2019-10-06 07:00:00 14.9 7 Sur 10 Sur 0 1010.8 0.3 94
2019-10-06 06:00:00 14.9 6 Sur 10 Sur 0 1010.4 -0.3 94
2019-10-06 05:00:00 14.8 6 Sur 10 Sur 0 1010 -0.4 94
2019-10-06 04:00:00 14.6 6 Sur 10 Sur 0 1010.5 0.4 94
2019-10-06 03:00:00 15.1 7 Sur 9 Sur 0 1010.7 -0.2 94
2019-10-06 02:00:00 15.1 6 Sur 8 Sur 0 1010.4 0.4 93
2019-10-06 01:00:00 15.7 6 Sur 9 Sur 0 1010.1 -- 92
2019-10-06 00:00:00 16.7 0 Calma 8 Sur 0 1010.9 0.5 92
2019-10-05 23:00:00 16.8 4 Sur 7 Sur 0 1010 0.1 89
2019-10-05 22:00:00 -- 0 Calma 5 Noroeste 0 -- -- --
2019-10-05 21:00:00 17.5 0 Calma 13 Nordeste 0 1010.4 1.6 85
2019-10-05 20:00:00 17.7 4 Norte 12 Norte 0 1009.9 1.3 84
2019-10-05 19:00:00 17.9 7 Norte 17 Nordeste 0 1009.2 0.4 84
2019-10-05 18:00:00 18.2 8 Nordeste 15 Nordeste 0 1008.8 0 84
2019-10-05 17:00:00 18.4 9 Nordeste 15 Nordeste 0 1008.6 -0.6 83
2019-10-05 16:00:00 19.4 10 Nordeste 17 Nordeste 0 1008.8 -0.6 81
2019-10-05 15:00:00 19.6 9 Nordeste 13 Nordeste 0 1008.8 -0.5 80
2019-10-05 14:00:00 19.3 8 Nordeste 14 Nordeste 0 1009.2 0 82
2019-10-05 13:00:00 17.7 4 Norte 12 Noroeste 0 1009.4 0.5 89
2019-10-05 12:00:00 18.5 2 Sudeste 12 Sur 0 1009.3 0.8 84
2019-10-05 11:00:00 16.6 6 Sur 13 Sudeste 0 1009.2 1.3 96
2019-10-05 10:00:00 14.8 8 Sudeste 14 Sudeste 0 1008.9 0.6 97
2019-10-05 09:00:00 13.5 8 Sur 12 Sur 0.1 1008.5 0.1 97
2019-10-05 08:00:00 13.5 8 Sur 14 Sur 0 1007.9 -0.8 97
2019-10-05 07:00:00 13.8 6 Sur 11 Sur 0 1008.3 -0.6 97
2019-10-05 06:00:00 14.1 6 Sur 10 Sudeste 0 1008.4 -0.7 97
2019-10-05 05:00:00 14.3 7 Sur 10 Sur 0 1008.7 -0.5 97
2019-10-05 04:00:00 14.4 6 Sur 9 Sudeste 0 1008.9 -0.9 97
2019-10-05 03:00:00 14.5 6 Sur 9 Sudeste 0 1009.1 -1 97
2019-10-05 02:00:00 15 6 Sudeste 10 Sudeste 0 1009.2 -1 96
2019-10-05 01:00:00 15.9 5 Sur 9 Oeste 0 1009.8 -0.1 96
2019-10-05 00:00:00 16.1 4 Oeste 13 Oeste 0.1 1010.1 0.4 95
2019-10-04 23:00:00 16.6 0 Calma 6 Sudoeste 0 1010.2 0.5 93
2019-10-04 22:00:00 16.7 3 Oeste 8 Oeste 0 1009.9 1 92
2019-10-04 21:00:00 16.9 3 Noroeste 11 Oeste 0 1009.7 0.9 92
2019-10-04 20:00:00 16.7 6 Noroeste 12 Noroeste 0 1009.7 0.8 92
2019-10-04 19:00:00 16.9 5 Noroeste 11 Oeste 0 1008.9 -0.2 95
2019-10-04 18:00:00 16.6 5 Oeste 13 Noroeste 0 1008.8 -0.6 96
2019-10-04 17:00:00 16.4 5 Noroeste 15 Noroeste 0 1008.9 -0.6 96
2019-10-04 16:00:00 16.2 8 Noroeste 20 Noroeste 0.2 1009.1 -0.9 96
2019-10-04 15:00:00 17.1 6 Noroeste 12 Noroeste 0 1009.4 -0.9 96
2019-10-04 14:00:00 16.5 6 Noroeste 20 Noroeste 0 1009.5 -0.5 97
2019-10-04 13:00:00 16.7 12 Noroeste 22 Oeste 0.1 1010 0.6 97
2019-10-04 12:00:00 16.9 9 Noroeste 19 Noroeste 0 1010.3 1.3 96
2019-10-04 11:00:00 16.9 6 Noroeste 19 Oeste 0 1010 1.5 96
2019-10-04 10:00:00 16.6 8 Oeste 22 Noroeste 0.8 1009.4 1.1 96
2019-10-04 09:00:00 16.7 4 Oeste 17 Oeste 1.7 1009 1 95
2019-10-04 08:00:00 15.8 0 Calma 9 Sur 0 1008.5 0.6 92
2019-10-04 07:00:00 15.7 5 Sur 12 Sudeste 0 1008.3 0 91
2019-10-04 06:00:00 15.3 8 Sur 15 Sur 0 1008 -0.4 91
2019-10-04 05:00:00 15.4 8 Sur 13 Sur 0 1007.9 -0.8 89
2019-10-04 04:00:00 15.6 8 Sur 13 Sur 0 1008.3 -0.8 88
2019-10-04 03:00:00 15.9 7 Sur 14 Sur 0 1008.4 -0.9 88
2019-10-04 02:00:00 15.9 8 Sur 13 Sur 0 1008.7 -1.1 86
2019-10-04 01:00:00 15.8 9 Sur 15 Sur 0 1009.1 -0.6 89
2019-10-04 00:00:00 15.3 10 Sur 15 Sur 0 1009.3 -0.2 89
2019-10-03 23:00:00 15.3 7 Sur 10 Sur 0 1009.8 0.6 89
2019-10-03 22:00:00 15.7 8 Sur 10 Sudeste 0 1009.7 0.4 86
2019-10-03 21:00:00 16.3 5 Sur 7 Sudeste 0 1009.5 0.1 83
2019-10-03 20:00:00 17.6 0 Calma 4 Sur 0 1009.2 -0.2 79
2019-10-03 19:00:00 19.6 0 Calma 6 Norte 0 1009.3 0 69
2019-10-03 18:00:00 19.7 4 Norte 10 Norte 0 1009.4 -0.3 69
2019-10-03 17:00:00 19.7 5 Nordeste 11 Norte 0 1009.4 -0.4 69
2019-10-03 16:00:00 19.4 6 Norte 12 Nordeste 0 1009.3 -0.5 70
2019-10-03 15:00:00 19.1 6 Norte 14 Norte 0 1009.7 0 70
2019-10-03 14:00:00 19.4 6 Norte 11 Norte 0 1009.8 -0.2 69
2019-10-03 13:00:00 19.2 3 Norte 10 Sudeste 0 1009.8 -0.2 73
2019-10-03 12:00:00 17.4 8 Sudeste 15 Sudeste 0 1009.7 -0.3 83
2019-10-03 11:00:00 15.8 9 Sudeste 17 Sur 0 1010 0.2 92
2019-10-03 10:00:00 13.8 9 Sudeste 15 Sudeste 0 1010 0.8 96
2019-10-03 09:00:00 12.7 9 Sur 14 Sur 0 1010 0.4 97
2019-10-03 08:00:00 12.7 8 Sur 13 Sur 0 1009.8 0 97
2019-10-03 07:00:00 12.9 8 Sur 12 Sur 0 1009.2 -1.3 97
2019-10-03 06:00:00 12.9 7 Sur 13 Sur 0 1009.6 -1.9 97
2019-10-03 05:00:00 13.3 8 Sur 13 Sur 0 1009.8 -- 97
2019-10-03 04:00:00 13.9 6 Sur 22 Sur 0 1010.5 -1.7 97
2019-10-03 03:00:00 14.3 7 Sur 21 Sur 0 1011.5 -1.5 97
2019-10-03 02:00:00 -- -- -- -- -- -- -- -- --
2019-10-03 01:00:00 14.5 6 Sur 11 Sur 0 1012.2 -1 96
2019-10-03 00:00:00 14.5 6 Sudeste 10 Sur 0 1013 0.4 96
2019-10-02 23:00:00 14.6 6 Sur 8 Sur 0 1012.9 0.4 95
2019-10-02 22:00:00 15.6 4 Oeste 12 Oeste 0 1013.2 1.2 95
2019-10-02 21:00:00 15.6 6 Oeste 25 Noroeste 0 1012.6 1 96
2019-10-02 20:00:00 15.5 7 Oeste 17 Sudoeste 0 1012.5 1.1 96
2019-10-02 19:00:00 15.5 6 Oeste 23 Noroeste 0.3 1012 0.9 96
2019-10-02 18:00:00 15.4 8 Noroeste 27 Noroeste 0.4 1011.6 0.5 96
2019-10-02 17:00:00 16 17 Noroeste 40 Noroeste 0.4 1011.4 0.3 96
2019-10-02 16:00:00 16 11 Noroeste 41 Noroeste 0.6 1011.1 0.5 96
2019-10-02 15:00:00 15.8 22 Noroeste 38 Noroeste 0.5 1011.1 0.6 96
2019-10-02 14:00:00 16.5 21 Noroeste 42 Noroeste 0 1011.1 1 94
2019-10-02 13:00:00 17 17 Oeste 36 Oeste 0 1010.6 1.8 89
2019-10-02 12:00:00 16.2 17 Oeste 33 Oeste 0.4 1010.5 2.6 93
2019-10-02 11:00:00 15.5 15 Oeste 33 Oeste 0.6 1010.1 2.7 95
2019-10-02 10:00:00 15.3 17 Oeste 34 Oeste 0.1 1008.8 2 95
2019-10-02 09:00:00 14.8 19 Oeste 42 Oeste 1.2 1007.9 1.5 96
2019-10-02 08:00:00 15.1 18 Oeste 48 Noroeste 1.5 1007.4 1 96
2019-10-02 07:00:00 15.4 30 Noroeste 59 Oeste 3.9 1006.8 0.1 97
2019-10-02 06:00:00 16.5 21 Noroeste 51 Oeste 0.1 1006.4 -0.7 91
2019-10-02 05:00:00 15.7 18 Noroeste 40 Noroeste 0.6 1006.4 -0.3 95
2019-10-02 04:00:00 16.4 17 Oeste 41 Noroeste 0.6 1006.7 -0.4 92
2019-10-02 03:00:00 16.1 17 Oeste 37 Oeste 1.4 1007.1 0.1 92
2019-10-02 02:00:00 17.3 17 Oeste 31 Oeste 0 1006.7 0.1 85
2019-10-02 01:00:00 17.5 12 Oeste 36 Noroeste 0 1007.1 0.9 86
2019-10-02 00:00:00 17.6 12 Oeste 37 Noroeste 0 1007 1.1 89
2019-10-01 23:00:00 17.8 18 Noroeste 33 Noroeste 0.3 1006.6 1.2 92
2019-10-01 22:00:00 18.2 22 Noroeste 37 Noroeste 0 1006.2 1.3 89
2019-10-01 21:00:00 18.7 22 Noroeste 39 Oeste 0 1005.9 1.2 86
2019-10-01 20:00:00 18.9 21 Noroeste 39 Noroeste 0 1005.4 1.1 87
2019-10-01 19:00:00 19.1 22 Noroeste 38 Noroeste 0 1004.9 0.7 85
2019-10-01 18:00:00 19.3 15 Noroeste 33 Noroeste 0 1004.7 0.5 83
2019-10-01 17:00:00 19.3 18 Noroeste 37 Noroeste 0 1004.3 -0.3 86
2019-10-01 16:00:00 20 17 Noroeste 32 Noroeste 0 1004.2 -0.4 85
2019-10-01 15:00:00 21 15 Noroeste 30 Noroeste 0 1004.2 -0.4 83
2019-10-01 14:00:00 21.7 8 Noroeste 19 Noroeste 0 1004.6 0.4 86
2019-10-01 13:00:00 20.4 9 Noroeste 20 Noroeste 0 1004.6 0.9 89
2019-10-01 12:00:00 20.6 8 Noroeste 18 Noroeste 0 1004.6 1.7 88
2019-10-01 11:00:00 20.8 6 Noroeste 12 Oeste 0 1004.2 1.8 83
2019-10-01 10:00:00 19.3 4 Oeste 14 Noroeste 0 1003.7 1.4 93
2019-10-01 09:00:00 18.6 4 Noroeste 12 Oeste 0 1002.9 1.9 95
2019-10-01 08:00:00 18.1 7 Oeste 17 Oeste 0 1002.4 1.6 96
2019-10-01 07:00:00 17.5 6 Noroeste 10 Noroeste 0 1002.3 0 96
2019-10-01 06:00:00 17.1 0 Calma 14 Sudeste 0 1001 -2.2 96
2019-10-01 05:00:00 17.6 8 Sudeste 15 Sur 0 1000.8 -2.9 96
2019-10-01 04:00:00 17.8 6 Sur 13 Sudeste 0 1002.3 -1.7 96
2019-10-01 03:00:00 18.7 0 Calma 7 Sur 0 1003.2 -1.2 96
2019-10-01 02:00:00 19.3 5 Noroeste 14 Noroeste 0 1003.7 -0.6 96
2019-10-01 01:00:00 19.7 7 Noroeste 17 Noroeste 0 1004 0.1 96
2019-10-01 00:00:00 19.6 5 Oeste 17 Noroeste 0 1004.4 1 96
2019-09-30 23:00:00 20.1 8 Oeste 14 Oeste 0 1004.3 0.7 94
2019-09-30 22:00:00 20.6 5 Oeste 10 Oeste 0 1003.9 0.4 85
2019-09-30 21:00:00 21.4 5 Sur 9 Este 0 1003.4 -0.6 79
2019-09-30 20:00:00 22.6 3 Nordeste 8 Nordeste 0 1003.6 -1.2 74
2019-09-30 19:00:00 24.7 4 Norte 11 Nordeste 0 1003.5 -2.3 66
2019-09-30 18:00:00 24.7 6 Nordeste 14 Este 0 1004 -2.4 63
2019-09-30 17:00:00 24.8 8 Nordeste 14 Nordeste 0 1004.8 -2.2 63
2019-09-30 16:00:00 24.7 7 Nordeste 13 Nordeste 0 1005.8 -2 65
2019-09-30 15:00:00 23.8 5 Nordeste 11 Norte 0 1006.4 -1.7 76
2019-09-30 14:00:00 23.2 7 Nordeste 12 Nordeste 0 1007 -1.3 81
2019-09-30 13:00:00 24.2 4 Sudeste 16 Sudoeste 0 1007.8 -0.5 72
2019-09-30 12:00:00 22.7 9 Sudeste 15 Sudeste 0 1008.1 0.3 76
2019-09-30 11:00:00 20.6 8 Sudeste 14 Sudeste 0 1008.3 0.7 85
2019-09-30 10:00:00 18.5 8 Sur 15 Sudeste 0 1008.3 0.8 94
2019-09-30 09:00:00 16.6 8 Sur 15 Sudeste 0 1007.8 -0.1 96
2019-09-30 08:00:00 16.2 7 Sudeste 13 Sur 0 1007.6 -0.5 96
2019-09-30 07:00:00 17 6 Sur 12 Sur 0 1007.5 -1.1 96
2019-09-30 06:00:00 17.5 4 Sur 7 Sur 0 1007.9 -1.2 95
2019-09-30 05:00:00 18.1 3 Sur 7 Sudeste 0 1008.1 -1.2 94
2019-09-30 04:00:00 18.9 2 Sudeste 5 Sur 0 1008.6 -0.9 94
2019-09-30 03:00:00 19.1 2 Sudeste 4 Sudeste 0 1009.1 -0.5 94
2019-09-30 02:00:00 19.1 0 Calma 4 Noroeste 0 1009.3 -0.3 94
2019-09-30 01:00:00 19.3 2 Noroeste 8 Norte 0 1009.5 0.1 94
2019-09-30 00:00:00 19.5 3 Noroeste 11 Noroeste 0 1009.6 1 93
2019-09-29 23:00:00 19.4 6 Noroeste 14 Noroeste 0 1009.6 2.1 93
2019-09-29 22:00:00 19.9 4 Noroeste 12 Noroeste 0 1009.4 2.4 92
2019-09-29 21:00:00 20.4 0 Calma 5 Este 0 1008.6 1.7 76
2019-09-29 20:00:00 20.3 0 Calma 4 Nordeste 0 1007.5 0.9 70
2019-09-29 19:00:00 21.7 2 Nordeste 6 Nordeste 0 1007 0.9 70
2019-09-29 18:00:00 23.1 0 Calma 8 Norte 0 1006.9 0.7 64
2019-09-29 17:00:00 22.7 4 Norte 14 Norte 0 1006.6 0 79
2019-09-29 16:00:00 23.6 6 Nordeste 11 Nordeste 0 1006.1 -0.4 56
2019-09-29 15:00:00 23.8 4 Norte 8 Norte 0 1006.2 0.2 48
2019-09-29 14:00:00 21.4 4 Norte 15 Noroeste 0 1006.6 1.1 69
2019-09-29 13:00:00 22.1 8 Noroeste 17 Noroeste 0 1006.5 1.9 54
2019-09-29 12:00:00 23.5 4 Norte 12 Sudeste 0 1006 1.3 52
2019-09-29 11:00:00 21.9 6 Sudeste 16 Sur 0 1005.5 1 54
2019-09-29 10:00:00 17.8 10 Sur 16 Sur 0 1004.6 -0.1 73
2019-09-29 09:00:00 14.4 7 Sur 12 Sudeste 0 1004.7 0.1 94
2019-09-29 08:00:00 13.6 6 Sur 8 Sudeste 0 1004.5 -0.2 95
2019-09-29 07:00:00 13.7 3 Sudoeste 15 Sur 0 1004.7 -0.7 95
2019-09-29 06:00:00 14 12 Sur 17 Sur 0 1004.6 -1.1 96
2019-09-29 05:00:00 14.3 12 Sur 16 Sur 0 1004.7 -1.3 96
2019-09-29 04:00:00 14.5 9 Sur 16 Sur 0 1005.4 -1.2 96
2019-09-29 03:00:00 15.2 11 Sur 17 Sur 0 1005.7 -1.4 96
2019-09-29 02:00:00 14.9 9 Sur 13 Sur 0 1006 -1.7 96
2019-09-29 01:00:00 15.2 4 Sur 9 Sur 0 1006.6 -1.2 95
2019-09-29 00:00:00 15.8 6 Sur 11 Sur 0 1007.1 -1 95
2019-09-28 23:00:00 16.5 4 Sudeste 9 Sudoeste 0 1007.7 -0.2 93
2019-09-28 22:00:00 17.6 6 Sudoeste 16 Oeste 0 1007.8 -0.2 92
2019-09-28 21:00:00 18.1 7 Oeste 13 Oeste 0 1008.1 0 92
2019-09-28 20:00:00 19.1 4 Oeste 8 Oeste 0 1007.9 -0.5 89
2019-09-28 19:00:00 20.6 3 Norte 15 Nordeste 0 1008 -1.3 85
2019-09-28 18:00:00 20.9 7 Nordeste 17 Nordeste 0 1008.1 -2.1 84
2019-09-28 17:00:00 20.9 9 Nordeste 21 Nordeste 0 1008.4 -2.9 83
2019-09-28 16:00:00 20.4 13 Nordeste 21 Nordeste 0 1009.3 -2.5 82
2019-09-28 15:00:00 20.7 13 Nordeste 22 Nordeste 0 1010.2 -2.1 82
2019-09-28 14:00:00 20.6 12 Nordeste 20 Nordeste 0 1011.3 -1.3 82
2019-09-28 13:00:00 19 12 Nordeste 18 Nordeste 0 1011.8 -0.5 85
2019-09-28 12:00:00 19.4 4 Sudeste 15 Sudeste 0 1012.3 0.2 82
2019-09-28 11:00:00 18.4 7 Sudeste 13 Sur 0 1012.6 0.6 90
2019-09-28 10:00:00 16.3 6 Sudeste 12 Sur 0 1012.3 0.2 96
2019-09-28 09:00:00 15.6 6 Sur 11 Sur 0 1012.1 -0.3 96
2019-09-28 08:00:00 15.6 7 Sur 12 Sur 0 1012 -0.6 96
2019-09-28 07:00:00 15.6 5 Sur 10 Sur 0 1012.1 -0.6 96
2019-09-28 06:00:00 15.8 2 Sur 5 Sur 0 1012.4 -0.2 96
2019-09-28 05:00:00 15.7 5 Oeste 14 Noroeste 0 1012.6 -0.2 96
2019-09-28 04:00:00 16.8 9 Noroeste 17 Oeste 0 1012.7 0.1 91
2019-09-28 03:00:00 16.7 3 Sudeste 8 Sudoeste 0 1012.6 -0.3 92
2019-09-28 02:00:00 17.2 4 Oeste 11 Oeste 0 1012.8 0.1 89
2019-09-28 01:00:00 16.8 6 Oeste 19 Noroeste 0 1012.6 0.2 92
2019-09-28 00:00:00 16.9 11 Noroeste 22 Noroeste 0 1012.9 1.1 92
2019-09-27 23:00:00 17.5 9 Noroeste 17 Noroeste 0 1012.7 1.4 89
2019-09-27 22:00:00 17.8 5 Noroeste 18 Noroeste 0 1012.4 1.7 89
2019-09-27 21:00:00 17.1 9 Oeste 27 Noroeste 0 1011.8 1.8 93
2019-09-27 20:00:00 16.8 18 Noroeste 32 Noroeste 0 1011.3 1.7 96
2019-09-27 19:00:00 18.6 14 Noroeste 23 Noroeste 0 1010.7 1.1 89
2019-09-27 18:00:00 19.3 10 Noroeste 21 Noroeste 0 1010 0.4 88
2019-09-27 17:00:00 21.1 8 Norte 16 Norte 0 1009.6 -0.6 87
2019-09-27 16:00:00 20.5 6 Norte 13 Norte 0 1009.6 -0.8 88
2019-09-27 15:00:00 20.7 6 Norte 11 Nordeste 0 1009.6 -1 89
2019-09-27 14:00:00 20.6 8 Norte 12 Nordeste 0 1010.2 0.1 88
2019-09-27 13:00:00 19.8 7 Norte 16 Noroeste 0 1010.4 1 92
2019-09-27 12:00:00 19.1 9 Noroeste 29 Norte 0 1010.6 1.9 92
2019-09-27 11:00:00 19.5 4 Sur 18 Sur 0 1010.1 1 83
2019-09-27 10:00:00 17.4 12 Sudeste 21 Sudeste 0 1009.4 0.5 91
2019-09-27 09:00:00 15.5 11 Sur 18 Sur 0 1008.7 0 95
2019-09-27 08:00:00 14.9 10 Sur 17 Sur 0 1009.1 -0.2 95
2019-09-27 07:00:00 15.1 9 Sur 15 Sur 0 1008.9 -0.3 95
2019-09-27 06:00:00 15.3 9 Sur 15 Sur 0 1008.7 -0.9 95
2019-09-27 05:00:00 15.3 9 Sur 13 Sur 0 1009.3 -0.4 95
2019-09-27 04:00:00 15.6 7 Sur 12 Sudeste 0 1009.2 -0.7 95
2019-09-27 03:00:00 15.8 8 Sur 13 Sur 0 1009.6 -0.2 95
2019-09-27 02:00:00 16.6 5 Sur 8 Sur 0 1009.7 0.3 92
2019-09-27 01:00:00 17.9 0 Calma 6 Este 0 1009.9 0.3 92
2019-09-27 00:00:00 17.8 0 Calma 3 Este 0 1009.8 0.4 91
2019-09-26 23:00:00 17.6 0 Calma 7 Sudeste 0 1009.4 0.2 89
2019-09-26 22:00:00 18.1 0 Calma 9 Este 0 1009.6 0.5 88
2019-09-26 21:00:00 18.2 6 Este 9 Nordeste 0 1009.4 0.4 87
2019-09-26 20:00:00 18.7 5 Nordeste 10 Nordeste 0 1009.2 0.2 85
2019-09-26 19:00:00 19.1 7 Nordeste 15 Norte 0 1009.1 0.2 82
2019-09-26 18:00:00 19.5 6 Norte 17 Nordeste 0 1009 -0.1 81
2019-09-26 17:00:00 19.8 9 Nordeste 19 Nordeste 0 1009 -0.6 80
2019-09-26 16:00:00 21.1 9 Nordeste 17 Nordeste 0 1008.9 -0.8 79
2019-09-26 15:00:00 21.5 8 Nordeste 14 Nordeste 0 1009.1 -0.6 79
2019-09-26 14:00:00 20.5 7 Norte 14 Nordeste 0 1009.6 -0.2 79
2019-09-26 13:00:00 20.1 5 Norte 9 Nordeste 0 1009.7 0 79
2019-09-26 12:00:00 20.3 4 Nordeste 10 Sudeste 0 1009.7 0.5 79
2019-09-26 11:00:00 18.5 7 Sudeste 13 Sudeste 0 1009.8 0.8 86
2019-09-26 10:00:00 16.3 8 Sudeste 14 Sudeste 0 1009.7 0.7 93
2019-09-26 09:00:00 15.8 8 Sudeste 13 Sur 0 1009.2 0.7 94
2019-09-26 08:00:00 15.3 8 Sur 13 Sur 0 1009 0.2 94
2019-09-26 07:00:00 15.4 8 Sur 12 Sur 0 1009 0.2 94
2019-09-26 06:00:00 15.6 8 Sur 10 Sur 0 1008.5 -0.5 94
2019-09-26 05:00:00 15.8 7 Sur 10 Sur 0 1008.8 -0.4 94
2019-09-26 04:00:00 16 6 Sur 10 Sudeste 0 1008.8 -0.6 94
2019-09-26 03:00:00 16.2 6 Sur 9 Sur 0 1009 -0.3 93
2019-09-26 02:00:00 16.7 6 Sudeste 9 Sudeste 0 1009.2 -0.2 93
2019-09-26 01:00:00 16.9 6 Sur 9 Sur 0 1009.4 0.3 93
2019-09-26 00:00:00 17.8 4 Sur 6 Sur 0 1009.3 0.6 91
2019-09-25 23:00:00 18.1 0 Calma 6 Noroeste 0 1009.4 0.8 89
2019-09-25 22:00:00 18.4 3 Noroeste 9 Noroeste 0 1009.1 0.6 88
2019-09-25 21:00:00 18.6 5 Noroeste 14 Noroeste 0 1008.7 0.4 89
2019-09-25 20:00:00 18.7 8 Noroeste 19 Noroeste 0 1008.6 0.4 85
2019-09-25 19:00:00 18.9 10 Noroeste 21 Noroeste 0 1008.5 0 85
2019-09-25 18:00:00 19.1 9 Noroeste 21 Noroeste 0 1008.3 -0.1 82
2019-09-25 17:00:00 19.4 12 Noroeste 30 Noroeste 0 1008.2 -0.8 78
2019-09-25 16:00:00 19.6 15 Noroeste 32 Noroeste 0 1008.5 -0.6 71
2019-09-25 15:00:00 20.1 16 Noroeste 28 Noroeste 0 1008.4 -0.9 74
2019-09-25 14:00:00 20.2 15 Noroeste 33 Noroeste 0 1009 -0.3 70
2019-09-25 13:00:00 20.2 10 Noroeste 21 Oeste 0 1009.1 0.2 68
2019-09-25 12:00:00 19.6 9 Oeste 24 Oeste 0 1009.3 0.6 68
2019-09-25 11:00:00 18.5 10 Oeste 23 Noroeste 0 1009.3 1.2 72
2019-09-25 10:00:00 18 12 Oeste 24 Oeste 0 1008.9 1.1 73
2019-09-25 09:00:00 17.6 12 Oeste 22 Oeste 0 1008.7 1 75
2019-09-25 08:00:00 17.3 10 Oeste 26 Oeste 0 1008.1 0.6 76
2019-09-25 07:00:00 17.3 11 Oeste 23 Oeste 0 1007.8 -0.1 76
2019-09-25 06:00:00 17.1 8 Oeste 18 Oeste 0 1007.7 -0.4 80
2019-09-25 05:00:00 17.2 9 Oeste 23 Oeste 0 1007.5 -0.5 81
2019-09-25 04:00:00 18 10 Oeste 24 Oeste 0 1007.9 -0.3 79
2019-09-25 03:00:00 17.7 3 Oeste 15 Oeste 0 1008.1 -0.3 83
2019-09-25 02:00:00 17.6 4 Oeste 30 Oeste 0 1008 -0.4 84
2019-09-25 01:00:00 17.7 7 Oeste 15 Oeste 0 1008.2 -0.1 85
2019-09-25 00:00:00 17.6 9 Oeste 21 Oeste 0 1008.4 0.6 85
2019-09-24 23:00:00 17.4 10 Oeste 28 Noroeste 0 1008.4 0.9 89
2019-09-24 22:00:00 18 5 Oeste 11 Oeste 0 1008.3 1.4 88
2019-09-24 21:00:00 17.3 5 Sudoeste 25 Oeste 0 1007.8 1.1 94
2019-09-24 20:00:00 17.2 10 Oeste 33 Noroeste 0 1007.5 0.8 95
2019-09-24 19:00:00 18.3 15 Noroeste 26 Noroeste 0 1006.9 0.1 89
2019-09-24 18:00:00 19 8 Noroeste 15 Noroeste 0 1006.7 -0.1 85
2019-09-24 17:00:00 18.9 8 Noroeste 22 Noroeste 0 1006.7 -0.2 85
2019-09-24 16:00:00 19.1 13 Noroeste 22 Noroeste 0 1006.8 0.4 84
2019-09-24 15:00:00 18.7 16 Noroeste 34 Noroeste 0 1006.8 1.1 86
2019-09-24 14:00:00 18.8 22 Noroeste 37 Oeste 0 1006.9 1.5 86
2019-09-24 13:00:00 21.2 10 Noroeste 16 Noroeste 0 1006.4 1.7 78
2019-09-24 12:00:00 21.8 3 Noroeste 13 Oeste 0.1 1005.7 0.9 75
2019-09-24 11:00:00 21.3 3 Norte 9 Este 0 1005.4 0.9 83
2019-09-24 10:00:00 19.9 2 Sudeste 15 Oeste 0 1004.7 1.7 89
2019-09-24 09:00:00 19.7 9 Noroeste 19 Noroeste 0 1004.8 3.6 85
2019-09-24 08:00:00 20.8 12 Noroeste 22 Noroeste 0.1 1004.5 3.1 67
2019-09-24 07:00:00 22 14 Sudoeste 35 Sur 0 1003 1.7 48
2019-09-24 06:00:00 23.1 14 Sur 45 Sudoeste 0 1001.2 -1.4 46
2019-09-24 05:00:00 23.5 17 Sudoeste 47 Sudoeste 0 1001.4 -2.1 45
2019-09-24 04:00:00 23.4 19 Sudoeste 50 Sudoeste 0 1001.3 -3.4 48
2019-09-24 03:00:00 21.9 12 Sur 31 Sudoeste 0 1002.6 -4 53
2019-09-24 02:00:00 20.5 12 Sur 27 Sudoeste 0 1003.5 -3.5 64
2019-09-24 01:00:00 18.1 9 Sur 18 Sur 0 1004.7 -2 86
2019-09-24 00:00:00 18.6 4 Sudoeste 9 Sur 0.1 1006.6 -0.6 86
2019-09-23 23:00:00 19 5 Sudeste 10 Sudeste 0 1007 0.1 82
2019-09-23 22:00:00 19 4 Sur 9 Sur 0 1006.7 -0.4 82
2019-09-23 21:00:00 19.2 5 Sudeste 8 Sudeste 0 1007.2 0.4 82
2019-09-23 20:00:00 20.2 0 Calma 7 Norte 0.1 1006.9 0.1 77
2019-09-23 19:00:00 21.8 3 Sudoeste 14 Sudoeste 0 1007.1 0.3 59
2019-09-23 18:00:00 22 5 Sudoeste 17 Sudoeste 0 1006.8 -0.1 57
2019-09-23 17:00:00 22.2 2 Nordeste 15 Oeste 0 1006.8 -0.5 62
2019-09-23 16:00:00 23.4 6 Sudoeste 17 Sudoeste 0 1006.8 -0.7 48
2019-09-23 15:00:00 23 8 Sudoeste 23 Sudoeste 0 1006.9 -1.3 51
2019-09-23 14:00:00 22.1 2 Sudeste 18 Sur 0 1007.3 -1.3 54
2019-09-23 13:00:00 20.7 5 Sur 16 Sur 0 1007.5 -1 63
2019-09-23 12:00:00 19 7 Sur 17 Sudeste 0 1008.2 -0.2 79
2019-09-23 11:00:00 16.5 7 Sudeste 13 Sur 0 1008.6 0.5 89
2019-09-23 10:00:00 15.7 6 Sudeste 14 Sudeste 0 1008.5 0.4 92
2019-09-23 09:00:00 14.4 8 Sur 16 Sudeste 0 1008.4 0.4 95
2019-09-23 08:00:00 13.9 9 Sur 15 Sur 0 1008.1 -0.1 96
2019-09-23 07:00:00 13.8 7 Sur 14 Sur 0 1008.1 0.1 96
2019-09-23 06:00:00 14 6 Sur 12 Sudeste 0 1008 -0.2 95
2019-09-23 05:00:00 14.3 7 Sur 10 Sur 0 1008.2 -0.1 95
2019-09-23 04:00:00 14.4 5 Sur 13 Sudeste 0 1008 -0.1 96
2019-09-23 03:00:00 15.1 8 Sudeste 13 Sur 0 1008.2 0 95
2019-09-23 02:00:00 15.3 6 Sur 11 Sur 0 1008.3 0.1 94
2019-09-23 01:00:00 15.7 6 Sur 11 Sur 0 1008.1 0.5 93
2019-09-23 00:00:00 16 6 Sur 12 Sur 0 1008.2 1.2 93
2019-09-22 23:00:00 16.3 6 Sur 9 Sur 0 1008.2 1.9 92
2019-09-22 22:00:00 16.5 6 Sur 9 Sur 0 1007.6 1.3 91
2019-09-22 21:00:00 17.4 5 Sudeste 9 Sur 0 1007 1.2 88
2019-09-22 20:00:00 19.3 2 Noroeste 10 Noroeste 0 1006.3 1.2 75
2019-09-22 19:00:00 19.3 4 Noroeste 14 Noroeste 0 1006.3 1.3 75
2019-09-22 18:00:00 19.4 7 Noroeste 17 Norte 0 1005.8 1.4 72
2019-09-22 17:00:00 20.6 8 Noroeste 21 Norte 0 1005.1 1 66
2019-09-22 16:00:00 21 8 Norte 19 Nordeste 0 1005 0.8 69
2019-09-22 15:00:00 21.2 10 Nordeste 18 Nordeste 0 1004.4 0.8 68
2019-09-22 14:00:00 21.2 6 Norte 10 Norte 0 1004.1 0.8 67
2019-09-22 13:00:00 20.1 3 Norte 7 Norte 0 1004.2 1.9 73
2019-09-22 12:00:00 18.8 2 Oeste 12 Sur 0 1003.6 1.9 86
2019-09-22 11:00:00 17.9 5 Sudeste 17 Sur 0 1003.3 2.2 96
2019-09-22 10:00:00 16.4 8 Sudeste 15 Sudeste 0 1002.3 2 96
2019-09-22 09:00:00 16.1 8 Sur 13 Sudeste 0 1001.7 1.9 96
2019-09-22 08:00:00 15.7 5 Sudeste 9 Sur 0 1001.1 1 96
2019-09-22 07:00:00 15.7 3 Sur 8 Noroeste 0.3 1000.3 0.3 96
2019-09-22 06:00:00 15.9 0 Calma 17 Noroeste 3.9 999.8 0.6 96
2019-09-22 05:00:00 16.1 7 Noroeste 19 Noroeste 6.3 1000.1 1.8 96
2019-09-22 04:00:00 17.1 9 Noroeste 27 Noroeste 0.5 1000 2.6 92
2019-09-22 03:00:00 17.9 17 Noroeste 45 Noroeste 0 999.2 2.4 90
2019-09-22 02:00:00 18.2 23 Noroeste 48 Oeste 0 998.3 1.9 92
2019-09-22 01:00:00 24.2 9 Sudoeste 36 Oeste 0 997.4 1.6 60
2019-09-22 00:00:00 23.9 10 Sudoeste 24 Sur 0 996.8 0.8 61
2019-09-21 23:00:00 23.8 10 Sur 34 Sur 0 996.4 0.3 60
2019-09-21 22:00:00 23.7 13 Sur 32 Sur 0 995.8 0 59
2019-09-21 21:00:00 23.6 9 Sur 30 Sur 0 996 -0.2 59
2019-09-21 20:00:00 24.3 9 Sur 40 Sur 0 996.1 -0.8 56
2019-09-21 19:00:00 25.3 13 Sur 35 Sudoeste 0 995.8 -1.7 52
2019-09-21 18:00:00 25.2 10 Sur 30 Sur 0 996.2 -1.4 53
2019-09-21 17:00:00 24.7 12 Sur 36 Sur 0 996.9 -1.2 57
2019-09-21 16:00:00 24.7 12 Sur 29 Sur 0 997.5 -1.5 55
2019-09-21 15:00:00 25.8 9 Sudoeste 25 Sur 0 997.6 -1.9 51
2019-09-21 14:00:00 27.5 10 Sur 28 Sur 0 998.1 -1.1 51
2019-09-21 13:00:00 25.4 11 Sur 26 Sur 0 999 -0.7 55
2019-09-21 12:00:00 24.4 11 Sur 38 Sur 0 999.5 -0.6 63
2019-09-21 11:00:00 23.2 12 Sur 30 Sur 0 999.2 -0.5 70
2019-09-21 10:00:00 22.6 13 Sur 31 Sur 0 999.7 0 72
2019-09-21 09:00:00 20.9 10 Sur 24 Sudeste 0 1000.1 0.5 78
2019-09-21 08:00:00 20.1 10 Sur 23 Sur 0.1 999.7 0.4 81
2019-09-21 07:00:00 19.8 7 Sudeste 15 Sudeste 0 999.7 0.1 82
2019-09-21 06:00:00 20.5 4 Sur 32 Sur 0 999.6 -0.6 79
2019-09-21 05:00:00 20.2 12 Sur 28 Sur 0 999.3 -1.8 80
2019-09-21 04:00:00 20.2 5 Sudeste 26 Sur 0 999.6 -1.6 78
2019-09-21 03:00:00 20.7 16 Sur 36 Sur 0 1000.2 0 73
2019-09-21 02:00:00 19.8 14 Sur 34 Sur 0 1001.1 -0.1 78
2019-09-21 01:00:00 18.2 5 Sudoeste 36 Sudeste 0.3 1001.2 -0.2 90
2019-09-21 00:00:00 17.8 20 Sudeste 37 Sur 1.5 1000.2 -1.6 92
2019-09-20 23:00:00 19.8 12 Sur 31 Sur 0 1001.2 0.3 81
2019-09-20 22:00:00 19.5 12 Sur 26 Sudeste 0.2 1001.4 0.6 89
2019-09-20 21:00:00 19.9 9 Sur 36 Sur 0.6 1001.8 0.9 88
2019-09-20 20:00:00 25.5 6 Sur 13 Sur 0 1000.9 0.4 61
2019-09-20 19:00:00 26.5 8 Sudeste 21 Sudeste 0 1000.8 -0.6 56
2019-09-20 18:00:00 27.7 13 Sudeste 31 Sur 0 1000.9 -1.2 51
2019-09-20 17:00:00 29.8 12 Sudeste 24 Sudeste 0 1000.5 -2.1 47
2019-09-20 16:00:00 30.4 9 Sur 22 Sur 0 1001.4 -1.7 46
2019-09-20 15:00:00 29.8 9 Sur 22 Sur 0 1002.1 -1.6 49
2019-09-20 14:00:00 28.9 10 Sur 22 Sur 0 1002.6 -1.9 51
2019-09-20 13:00:00 27.7 10 Sudeste 22 Sudeste 0 1003.1 -1.3 58
2019-09-20 12:00:00 25.7 11 Sur 23 Sudeste 0 1003.7 -0.6 66
2019-09-20 11:00:00 21.9 5 Sudeste 20 Sudeste 0 1004.5 0.5 82
2019-09-20 10:00:00 19.2 10 Sur 17 Sur 0 1004.4 0.3 90
2019-09-20 09:00:00 17.3 8 Sur 16 Sur 0 1004.3 -0.3 95
2019-09-20 08:00:00 15.8 8 Sudeste 14 Sur 0 1004 -1.3 96
2019-09-20 07:00:00 15.6 9 Sur 15 Sur 0 1004.1 -1.7 96
2019-09-20 06:00:00 15.5 9 Sur 16 Sur 0 1004.6 -1.7 95
2019-09-20 05:00:00 15.2 8 Sur 13 Sur 0 1005.3 -1.4 96
2019-09-20 04:00:00 14.8 6 Sur 8 Sudeste 0 1005.8 -1.4 95
2019-09-20 03:00:00 15.1 6 Sur 8 Sur 0 1006.3 -1.6 95
2019-09-20 02:00:00 15.3 6 Sur 8 Sur 0 1006.7 -1.4 94
2019-09-20 01:00:00 15.8 5 Sudeste 8 Sudeste 0 1007.2 -1.1 93
2019-09-20 00:00:00 16.2 5 Sudeste 7 Sudeste 0 1007.9 0 92
2019-09-19 23:00:00 16.5 4 Sudoeste 6 Sur 0 1008.1 0.3 92
2019-09-19 22:00:00 16.8 0 Calma 4 Sudoeste 0 1008.3 0.7 89
2019-09-19 21:00:00 17.6 0 Calma 5 Nordeste 0 1007.9 0.1 87
2019-09-19 20:00:00 18.9 4 Nordeste 15 Nordeste 0 1007.8 -0.3 83
2019-09-19 19:00:00 19.4 10 Nordeste 19 Nordeste 0 1007.6 -0.7 81
2019-09-19 18:00:00 20.2 10 Nordeste 16 Norte 0 1007.8 -1 78
2019-09-19 17:00:00 20.8 11 Nordeste 18 Nordeste 0 1008.1 -1.1 77
2019-09-19 16:00:00 20.7 11 Nordeste 18 Nordeste 0 1008.3 -1.4 77
2019-09-19 15:00:00 21.3 10 Nordeste 17 Nordeste 0 1008.8 -1.1 79
2019-09-19 14:00:00 21.2 7 Norte 13 Norte 0 1009.2 -0.6 85
2019-09-19 13:00:00 21 6 Norte 12 Norte 0 1009.7 0.1 86
2019-09-19 12:00:00 19.9 5 Norte 11 Oeste 0 1009.9 0.7 88
2019-09-19 11:00:00 18.8 3 Oeste 11 Sudeste 0 1009.8 0.8 93
2019-09-19 10:00:00 17.4 5 Sur 12 Sudeste 0 1009.6 1 97
2019-09-19 09:00:00 16.3 6 Sur 10 Sur 0 1009.2 0.7 97
2019-09-19 08:00:00 15.9 6 Sur 11 Sur 0 1009 0.2 97
2019-09-19 07:00:00 15.8 6 Sur 10 Sudeste 0 1008.6 -0.6 96
2019-09-19 06:00:00 16 6 Sur 9 Sur 0 1008.5 -1 96
2019-09-19 05:00:00 16.1 6 Sudeste 9 Sur 0 1008.8 -0.7 96
2019-09-19 04:00:00 17.3 5 Sudoeste 12 Oeste 0 1009.2 -0.5 95
2019-09-19 03:00:00 17.6 2 Noroeste 15 Noroeste 0 1009.5 -0.4 93
2019-09-19 02:00:00 17.9 6 Oeste 17 Oeste 0 1009.5 -0.2 93
2019-09-19 01:00:00 18.2 8 Oeste 20 Noroeste 0 1009.7 0.3 93
2019-09-19 00:00:00 18.5 8 Noroeste 13 Noroeste 0 1009.9 0.7 92
2019-09-18 23:00:00 18.6 6 Noroeste 13 Noroeste 0 1009.7 0.9 92
2019-09-18 22:00:00 18.7 5 Noroeste 9 Noroeste 0 1009.4 1 92
2019-09-18 21:00:00 18.7 4 Noroeste 8 Noroeste 0 1009.2 1 92
2019-09-18 20:00:00 19.2 0 Calma 12 Nordeste 0 1008.8 0.5 92
2019-09-18 19:00:00 19.7 3 Norte 12 Norte 0 1008.4 -0.1 92
2019-09-18 18:00:00 20.1 5 Norte 11 Norte 0 1008.2 -0.5 92
2019-09-18 17:00:00 20.3 4 Norte 12 Nordeste 0 1008.3 0.1 92
2019-09-18 16:00:00 20.5 8 Nordeste 12 Norte 0 1008.5 0.5 93
2019-09-18 15:00:00 20.2 5 Norte 19 Noroeste 0 1008.7 0.5 95
2019-09-18 14:00:00 20.2 11 Noroeste 23 Noroeste 0 1008.2 0.1 95
2019-09-18 13:00:00 20.1 9 Noroeste 17 Noroeste 0 1008 0.2 96
2019-09-18 12:00:00 19.9 5 Noroeste 8 Noroeste 0 1008.2 1.7 96
2019-09-18 11:00:00 19.7 3 Sur 7 Sur 0 1008.1 1.9 96
2019-09-18 10:00:00 19.2 5 Sudeste 7 Sur 0 1007.8 1.8 96
2019-09-18 09:00:00 18.8 0 Calma 9 Oeste 0 1006.5 0.4 96
2019-09-18 08:00:00 18.6 5 Oeste 15 Oeste 3.5 1006.2 -0.3 96
2019-09-18 07:00:00 18.8 5 Noroeste 11 Noroeste 0.6 1006 -1.1 96
2019-09-18 06:00:00 18.9 0 Calma 8 Sur 0 1006.1 -0.8 96
2019-09-18 05:00:00 18.9 0 Calma 8 Sur 0 1006.5 -0.2 96
2019-09-18 04:00:00 18.9 5 Sur 15 Oeste 0 1007.1 -0.5 96
2019-09-18 03:00:00 19.3 8 Noroeste 14 Noroeste 0 1006.9 -0.7 96
2019-09-18 02:00:00 19.4 6 Noroeste 20 Noroeste 0 1006.7 -0.7 96
2019-09-18 01:00:00 19.6 8 Noroeste 20 Noroeste 0 1007.6 0.5 96
2019-09-18 00:00:00 19.6 9 Noroeste 21 Noroeste 0 1007.6 0.7 96
2019-09-17 23:00:00 19.8 11 Noroeste 18 Noroeste 0 1007.4 1.7 96
2019-09-17 22:00:00 20.1 6 Noroeste 11 Noroeste 0 1007.1 0.6 96
2019-09-17 21:00:00 20.4 4 Oeste 9 Oeste 0 1006.9 0.3 95